sensor_id;sensor_type;location;lat;lon;timestamp;pressure;altitude;pressure_sealevel;temperature;humidity
83195;BME280;73090;49.282;11.402;2024-02-28T00:03:38;96328.91;;;2.74;91.54
83195;BME280;73090;49.282;11.402;2024-02-28T00:07:40;96332.88;;;2.68;91.45
83195;BME280;73090;49.282;11.402;2024-02-28T00:11:45;96336.84;;;2.72;91.85
83195;BME280;73090;49.282;11.402;2024-02-28T00:15:47;96331.38;;;2.76;91.76
83195;BME280;73090;49.282;11.402;2024-02-28T00:19:49;96334.34;;;2.81;91.49
83195;BME280;73090;49.282;11.402;2024-02-28T00:23:50;96343.59;;;2.93;91.78
83195;BME280;73090;49.282;11.402;2024-02-28T00:27:52;96337.19;;;2.87;90.71
83195;BME280;73090;49.282;11.402;2024-02-28T00:31:53;96336.09;;;2.90;90.97
83195;BME280;73090;49.282;11.402;2024-02-28T00:35:55;96331.94;;;2.97;90.66
83195;BME280;73090;49.282;11.402;2024-02-28T00:39:57;96329.31;;;3.07;90.45
83195;BME280;73090;49.282;11.402;2024-02-28T00:43:58;96326.53;;;2.90;90.22
83195;BME280;73090;49.282;11.402;2024-02-28T00:48:00;96327.09;;;2.84;89.93
83195;BME280;73090;49.282;11.402;2024-02-28T00:52:01;96333.25;;;2.83;90.86
83195;BME280;73090;49.282;11.402;2024-02-28T00:56:03;96330.94;;;2.80;91.34
83195;BME280;73090;49.282;11.402;2024-02-28T01:00:05;96333.25;;;2.83;90.62
83195;BME280;73090;49.282;11.402;2024-02-28T01:04:07;96331.75;;;2.81;90.63
83195;BME280;73090;49.282;11.402;2024-02-28T01:08:09;96336.28;;;2.79;90.61
83195;BME280;73090;49.282;11.402;2024-02-28T01:12:10;96338.72;;;2.80;91.00
83195;BME280;73090;49.282;11.402;2024-02-28T01:16:12;96348.97;;;2.82;90.67
83195;BME280;73090;49.282;11.402;2024-02-28T01:20:14;96341.84;;;2.84;90.72
83195;BME280;73090;49.282;11.402;2024-02-28T01:24:16;96336.63;;;2.94;90.83
83195;BME280;73090;49.282;11.402;2024-02-28T01:28:18;96352.63;;;2.89;90.14
83195;BME280;73090;49.282;11.402;2024-02-28T01:32:20;96346.19;;;2.93;90.57
83195;BME280;73090;49.282;11.402;2024-02-28T01:36:22;96352.91;;;2.86;89.96
83195;BME280;73090;49.282;11.402;2024-02-28T01:40:23;96353.84;;;2.95;90.48
83195;BME280;73090;49.282;11.402;2024-02-28T01:44:25;96355.22;;;2.89;89.90
83195;BME280;73090;49.282;11.402;2024-02-28T01:48:27;96352.47;;;2.90;89.97
83195;BME280;73090;49.282;11.402;2024-02-28T01:52:28;96357.25;;;2.95;89.97
83195;BME280;73090;49.282;11.402;2024-02-28T01:56:32;96364.22;;;2.95;90.03
83195;BME280;73090;49.282;11.402;2024-02-28T02:00:34;96363.41;;;2.94;89.80
83195;BME280;73090;49.282;11.402;2024-02-28T02:04:36;96362.44;;;2.95;89.84
83195;BME280;73090;49.282;11.402;2024-02-28T02:08:37;96366.41;;;2.99;89.54
83195;BME280;73090;49.282;11.402;2024-02-28T02:12:40;96365.59;;;2.89;89.19
83195;BME280;73090;49.282;11.402;2024-02-28T02:16:41;96376.97;;;2.88;89.18
83195;BME280;73090;49.282;11.402;2024-02-28T02:20:46;96381.59;;;2.84;89.26
83195;BME280;73090;49.282;11.402;2024-02-28T02:24:50;96383.53;;;2.82;89.13
83195;BME280;73090;49.282;11.402;2024-02-28T02:28:52;96385.84;;;2.85;89.63
83195;BME280;73090;49.282;11.402;2024-02-28T02:32:54;96398.41;;;2.90;89.48
83195;BME280;73090;49.282;11.402;2024-02-28T02:36:55;96395.56;;;2.83;89.73
83195;BME280;73090;49.282;11.402;2024-02-28T02:40:57;96399.25;;;2.81;89.82
83195;BME280;73090;49.282;11.402;2024-02-28T02:44:59;96407.72;;;2.73;89.98
83195;BME280;73090;49.282;11.402;2024-02-28T02:49:00;96423.59;;;2.70;90.31
83195;BME280;73090;49.282;11.402;2024-02-28T02:53:02;96428.38;;;2.65;90.50
83195;BME280;73090;49.282;11.402;2024-02-28T02:57:04;96437.13;;;2.64;90.47
83195;BME280;73090;49.282;11.402;2024-02-28T03:01:06;96437.94;;;2.64;90.73
83195;BME280;73090;49.282;11.402;2024-02-28T03:05:07;96433.56;;;2.65;90.64
83195;BME280;73090;49.282;11.402;2024-02-28T03:09:09;96447.09;;;2.68;90.68
83195;BME280;73090;49.282;11.402;2024-02-28T03:13:10;96450.38;;;2.70;90.52
83195;BME280;73090;49.282;11.402;2024-02-28T03:17:12;96462.78;;;2.77;91.10
83195;BME280;73090;49.282;11.402;2024-02-28T03:21:14;96466.34;;;2.76;90.99
83195;BME280;73090;49.282;11.402;2024-02-28T03:25:15;96468.94;;;2.76;90.58
83195;BME280;73090;49.282;11.402;2024-02-28T03:29:17;96485.88;;;2.80;91.06
83195;BME280;73090;49.282;11.402;2024-02-28T03:33:19;96479.72;;;2.81;90.84
83195;BME280;73090;49.282;11.402;2024-02-28T03:37:20;96480.25;;;2.84;91.03
83195;BME280;73090;49.282;11.402;2024-02-28T03:41:22;96486.16;;;2.86;91.07
83195;BME280;73090;49.282;11.402;2024-02-28T03:45:23;96489.94;;;2.92;90.87
83195;BME280;73090;49.282;11.402;2024-02-28T03:49:28;96480.94;;;2.96;90.14
83195;BME280;73090;49.282;11.402;2024-02-28T03:53:30;96474.63;;;2.99;89.84
83195;BME280;73090;49.282;11.402;2024-02-28T03:57:31;96486.53;;;2.92;90.13
83195;BME280;73090;49.282;11.402;2024-02-28T04:01:33;96497.06;;;2.90;90.48
83195;BME280;73090;49.282;11.402;2024-02-28T04:05:35;96489.16;;;2.92;90.08
83195;BME280;73090;49.282;11.402;2024-02-28T04:09:36;96495.69;;;2.86;90.05
83195;BME280;73090;49.282;11.402;2024-02-28T04:13:38;96509.50;;;2.86;90.65
83195;BME280;73090;49.282;11.402;2024-02-28T04:17:40;96506.34;;;2.83;90.59
83195;BME280;73090;49.282;11.402;2024-02-28T04:21:42;96506.78;;;2.88;90.47
83195;BME280;73090;49.282;11.402;2024-02-28T04:25:43;96510.72;;;3.02;90.62
83195;BME280;73090;49.282;11.402;2024-02-28T04:29:45;96501.41;;;2.89;89.00
83195;BME280;73090;49.282;11.402;2024-02-28T04:33:47;96505.53;;;2.92;89.63
83195;BME280;73090;49.282;11.402;2024-02-28T04:37:50;96508.00;;;2.84;89.94
83195;BME280;73090;49.282;11.402;2024-02-28T04:41:51;96502.28;;;2.80;89.59
83195;BME280;73090;49.282;11.402;2024-02-28T04:45:53;96504.44;;;2.65;89.93
83195;BME280;73090;49.282;11.402;2024-02-28T04:49:55;96507.88;;;2.56;90.66
83195;BME280;73090;49.282;11.402;2024-02-28T04:53:56;96501.47;;;2.60;90.83
83195;BME280;73090;49.282;11.402;2024-02-28T04:57:58;96505.00;;;2.59;90.74
83195;BME280;73090;49.282;11.402;2024-02-28T05:01:59;96514.84;;;2.56;91.21
83195;BME280;73090;49.282;11.402;2024-02-28T05:06:01;96521.28;;;2.51;91.73
83195;BME280;73090;49.282;11.402;2024-02-28T05:10:03;96518.25;;;2.56;91.85
83195;BME280;73090;49.282;11.402;2024-02-28T05:14:05;96516.34;;;2.58;91.75
83195;BME280;73090;49.282;11.402;2024-02-28T05:18:06;96524.00;;;2.60;91.33
83195;BME280;73090;49.282;11.402;2024-02-28T05:22:08;96520.44;;;2.61;91.61
83195;BME280;73090;49.282;11.402;2024-02-28T05:26:12;96533.00;;;2.65;91.28
83195;BME280;73090;49.282;11.402;2024-02-28T05:30:14;96531.25;;;2.76;90.75
83195;BME280;73090;49.282;11.402;2024-02-28T05:34:16;96526.06;;;2.66;90.94
83195;BME280;73090;49.282;11.402;2024-02-28T05:38:18;96524.53;;;2.73;91.16
83195;BME280;73090;49.282;11.402;2024-02-28T05:42:19;96534.38;;;2.69;90.75
83195;BME280;73090;49.282;11.402;2024-02-28T05:46:23;96542.56;;;2.65;91.57
83195;BME280;73090;49.282;11.402;2024-02-28T05:50:25;96538.19;;;2.65;91.50
83195;BME280;73090;49.282;11.402;2024-02-28T05:54:26;96545.31;;;2.73;91.51
83195;BME280;73090;49.282;11.402;2024-02-28T05:58:31;96547.22;;;2.61;91.56
83195;BME280;73090;49.282;11.402;2024-02-28T06:02:32;96560.75;;;2.65;91.56
83195;BME280;73090;49.282;11.402;2024-02-28T06:06:34;96566.88;;;2.64;91.93
83195;BME280;73090;49.282;11.402;2024-02-28T06:10:35;96569.06;;;2.68;91.64
83195;BME280;73090;49.282;11.402;2024-02-28T06:14:37;96574.41;;;2.77;90.93
83195;BME280;73090;49.282;11.402;2024-02-28T06:18:39;96572.38;;;2.80;90.08
83195;BME280;73090;49.282;11.402;2024-02-28T06:22:41;96573.59;;;2.86;89.78
83195;BME280;73090;49.282;11.402;2024-02-28T06:26:42;96589.69;;;2.70;90.67
83195;BME280;73090;49.282;11.402;2024-02-28T06:30:47;96603.06;;;2.65;91.18
83195;BME280;73090;49.282;11.402;2024-02-28T06:34:49;96613.97;;;2.49;91.45
83195;BME280;73090;49.282;11.402;2024-02-28T06:38:51;96622.47;;;2.51;92.25
83195;BME280;73090;49.282;11.402;2024-02-28T06:42:53;96622.75;;;2.58;92.28
83195;BME280;73090;49.282;11.402;2024-02-28T06:46:54;96624.28;;;2.70;91.87
83195;BME280;73090;49.282;11.402;2024-02-28T06:50:56;96634.94;;;2.77;91.59
83195;BME280;73090;49.282;11.402;2024-02-28T06:54:58;96649.00;;;2.84;91.02
83195;BME280;73090;49.282;11.402;2024-02-28T06:59:01;96650.25;;;2.90;91.33
83195;BME280;73090;49.282;11.402;2024-02-28T07:03:03;96669.38;;;2.89;90.92
83195;BME280;73090;49.282;11.402;2024-02-28T07:07:05;96677.31;;;2.97;90.45
83195;BME280;73090;49.282;11.402;2024-02-28T07:11:14;96670.91;;;2.92;90.34
83195;BME280;73090;49.282;11.402;2024-02-28T07:15:16;96680.31;;;2.93;90.29
83195;BME280;73090;49.282;11.402;2024-02-28T07:19:20;96682.91;;;2.93;90.84
83195;BME280;73090;49.282;11.402;2024-02-28T07:23:22;96696.59;;;2.95;91.00
83195;BME280;73090;49.282;11.402;2024-02-28T07:27:23;96687.97;;;2.94;90.32
83195;BME280;73090;49.282;11.402;2024-02-28T07:31:28;96690.16;;;2.99;90.82
83195;BME280;73090;49.282;11.402;2024-02-28T07:35:29;96697.00;;;3.00;90.35
83195;BME280;73090;49.282;11.402;2024-02-28T07:39:31;96699.47;;;3.01;90.39
83195;BME280;73090;49.282;11.402;2024-02-28T07:43:33;96711.38;;;3.04;90.37
83195;BME280;73090;49.282;11.402;2024-02-28T07:47:38;96708.91;;;3.02;89.93
83195;BME280;73090;49.282;11.402;2024-02-28T07:51:42;96720.25;;;3.01;89.63
83195;BME280;73090;49.282;11.402;2024-02-28T07:55:43;96718.59;;;3.00;89.90
83195;BME280;73090;49.282;11.402;2024-02-28T07:59:45;96723.38;;;3.05;89.97
83195;BME280;73090;49.282;11.402;2024-02-28T08:03:46;96722.03;;;3.11;90.24
83195;BME280;73090;49.282;11.402;2024-02-28T08:07:48;96720.81;;;3.15;89.82
83195;BME280;73090;49.282;11.402;2024-02-28T08:11:50;96719.47;;;3.30;88.86
83195;BME280;73090;49.282;11.402;2024-02-28T08:15:51;96719.59;;;3.29;88.77
83195;BME280;73090;49.282;11.402;2024-02-28T08:19:55;96724.53;;;3.32;89.14
83195;BME280;73090;49.282;11.402;2024-02-28T08:23:57;96717.13;;;3.37;88.94
83195;BME280;73090;49.282;11.402;2024-02-28T08:27:59;96719.19;;;3.43;88.85
83195;BME280;73090;49.282;11.402;2024-02-28T08:32:01;96718.78;;;3.48;88.67
83195;BME280;73090;49.282;11.402;2024-02-28T08:36:03;96726.72;;;3.46;88.75
83195;BME280;73090;49.282;11.402;2024-02-28T08:40:05;96725.75;;;3.57;88.22
83195;BME280;73090;49.282;11.402;2024-02-28T08:44:07;96734.78;;;3.62;87.95
83195;BME280;73090;49.282;11.402;2024-02-28T08:48:08;96738.50;;;3.60;87.56
83195;BME280;73090;49.282;11.402;2024-02-28T08:52:10;96738.75;;;3.67;88.06
83195;BME280;73090;49.282;11.402;2024-02-28T08:56:11;96726.72;;;3.85;87.53
83195;BME280;73090;49.282;11.402;2024-02-28T09:00:13;96731.06;;;3.85;86.65
83195;BME280;73090;49.282;11.402;2024-02-28T09:04:16;96736.41;;;3.73;87.17
83195;BME280;73090;49.282;11.402;2024-02-28T09:08:18;96745.19;;;3.72;87.91
83195;BME280;73090;49.282;11.402;2024-02-28T09:12:19;96747.63;;;4.03;86.00
83195;BME280;73090;49.282;11.402;2024-02-28T09:16:21;96749.41;;;3.93;85.63
83195;BME280;73090;49.282;11.402;2024-02-28T09:20:23;96751.34;;;3.81;86.45
83195;BME280;73090;49.282;11.402;2024-02-28T09:24:25;96757.09;;;3.75;86.34
83195;BME280;73090;49.282;11.402;2024-02-28T09:28:27;96757.22;;;3.83;86.64
83195;BME280;73090;49.282;11.402;2024-02-28T09:32:29;96754.75;;;4.01;86.58
83195;BME280;73090;49.282;11.402;2024-02-28T09:36:30;96763.91;;;4.05;85.87
83195;BME280;73090;49.282;11.402;2024-02-28T09:40:32;96756.34;;;4.12;86.08
83195;BME280;73090;49.282;11.402;2024-02-28T09:44:34;96763.47;;;4.20;85.14
83195;BME280;73090;49.282;11.402;2024-02-28T09:48:40;96763.28;;;4.31;84.15
83195;BME280;73090;49.282;11.402;2024-02-28T09:52:48;96764.94;;;4.32;84.54
83195;BME280;73090;49.282;11.402;2024-02-28T09:57:03;96774.25;;;4.25;84.36
83195;BME280;73090;49.282;11.402;2024-02-28T10:01:07;96771.94;;;4.31;84.35
83195;BME280;73090;49.282;11.402;2024-02-28T10:05:11;96763.19;;;4.23;84.18
83195;BME280;73090;49.282;11.402;2024-02-28T10:09:13;96762.34;;;4.32;85.41
83195;BME280;73090;49.282;11.402;2024-02-28T10:13:18;96772.53;;;4.06;84.89
83195;BME280;73090;49.282;11.402;2024-02-28T10:17:19;96776.75;;;4.07;85.47
83195;BME280;73090;49.282;11.402;2024-02-28T10:21:21;96781.13;;;4.16;84.96
83195;BME280;73090;49.282;11.402;2024-02-28T10:25:22;96788.13;;;4.15;83.98
83195;BME280;73090;49.282;11.402;2024-02-28T10:29:25;96794.66;;;4.29;84.21
83195;BME280;73090;49.282;11.402;2024-02-28T10:33:27;96804.84;;;4.03;84.12
83195;BME280;73090;49.282;11.402;2024-02-28T10:37:32;96802.66;;;3.79;84.61
83195;BME280;73090;49.282;11.402;2024-02-28T10:41:35;96809.09;;;3.75;85.42
83195;BME280;73090;49.282;11.402;2024-02-28T10:45:39;96812.66;;;3.84;86.24
83195;BME280;73090;49.282;11.402;2024-02-28T10:50:01;96816.06;;;3.84;86.69
83195;BME280;73090;49.282;11.402;2024-02-28T10:54:11;96825.63;;;3.74;85.74
83195;BME280;73090;49.282;11.402;2024-02-28T10:58:14;96835.91;;;3.75;85.56
83195;BME280;73090;49.282;11.402;2024-02-28T11:02:17;96827.56;;;3.72;85.83
83195;BME280;73090;49.282;11.402;2024-02-28T11:06:20;96820.03;;;3.78;86.06
83195;BME280;73090;49.282;11.402;2024-02-28T11:10:23;96825.41;;;3.87;85.67
83195;BME280;73090;49.282;11.402;2024-02-28T11:14:25;96813.47;;;3.94;85.53
83195;BME280;73090;49.282;11.402;2024-02-28T11:18:28;96814.97;;;4.16;85.00
83195;BME280;73090;49.282;11.402;2024-02-28T11:22:30;96812.22;;;4.27;84.10
83195;BME280;73090;49.282;11.402;2024-02-28T11:26:34;96807.56;;;4.21;83.96
83195;BME280;73090;49.282;11.402;2024-02-28T11:30:35;96824.53;;;4.25;84.24
83195;BME280;73090;49.282;11.402;2024-02-28T11:34:37;96819.47;;;4.24;83.11
83195;BME280;73090;49.282;11.402;2024-02-28T11:38:42;96824.28;;;4.28;83.42
83195;BME280;73090;49.282;11.402;2024-02-28T11:42:43;96829.59;;;4.27;83.02
83195;BME280;73090;49.282;11.402;2024-02-28T11:46:46;96831.38;;;4.36;83.12
83195;BME280;73090;49.282;11.402;2024-02-28T11:50:47;96834.41;;;4.31;83.86
83195;BME280;73090;49.282;11.402;2024-02-28T11:54:49;96844.50;;;4.44;83.39
83195;BME280;73090;49.282;11.402;2024-02-28T11:58:53;96842.22;;;4.31;83.43
83195;BME280;73090;49.282;11.402;2024-02-28T12:03:04;96841.50;;;4.39;82.72
83195;BME280;73090;49.282;11.402;2024-02-28T12:07:08;96835.22;;;4.32;83.77
83195;BME280;73090;49.282;11.402;2024-02-28T12:11:09;96842.47;;;4.38;83.99
83195;BME280;73090;49.282;11.402;2024-02-28T12:15:12;96843.44;;;4.17;83.66
83195;BME280;73090;49.282;11.402;2024-02-28T12:19:14;96829.63;;;4.17;85.06
83195;BME280;73090;49.282;11.402;2024-02-28T12:23:17;96840.94;;;4.35;85.00
83195;BME280;73090;49.282;11.402;2024-02-28T12:27:19;96845.31;;;4.45;84.16
83195;BME280;73090;49.282;11.402;2024-02-28T12:31:21;96845.84;;;4.68;83.63
83195;BME280;73090;49.282;11.402;2024-02-28T12:35:23;96844.34;;;4.56;82.00
83195;BME280;73090;49.282;11.402;2024-02-28T12:39:25;96845.44;;;4.53;83.15
83195;BME280;73090;49.282;11.402;2024-02-28T12:43:26;96839.03;;;4.47;82.58
83195;BME280;73090;49.282;11.402;2024-02-28T12:47:28;96839.97;;;4.56;83.14
83195;BME280;73090;49.282;11.402;2024-02-28T12:51:45;96836.22;;;4.68;82.91
83195;BME280;73090;49.282;11.402;2024-02-28T12:55:47;96841.56;;;4.77;81.41
83195;BME280;73090;49.282;11.402;2024-02-28T12:59:49;96838.94;;;4.77;81.36
83195;BME280;73090;49.282;11.402;2024-02-28T13:03:52;96833.75;;;4.77;80.57
83195;BME280;73090;49.282;11.402;2024-02-28T13:07:54;96827.34;;;4.71;80.32
83195;BME280;73090;49.282;11.402;2024-02-28T13:11:56;96822.31;;;4.87;80.91
83195;BME280;73090;49.282;11.402;2024-02-28T13:15:57;96818.63;;;4.80;80.14
83195;BME280;73090;49.282;11.402;2024-02-28T13:19:59;96823.00;;;4.89;81.34
83195;BME280;73090;49.282;11.402;2024-02-28T13:24:01;96825.31;;;4.93;80.33
83195;BME280;73090;49.282;11.402;2024-02-28T13:28:03;96829.56;;;4.94;80.18
83195;BME280;73090;49.282;11.402;2024-02-28T13:32:05;96836.81;;;5.00;80.77
83195;BME280;73090;49.282;11.402;2024-02-28T13:36:07;96830.38;;;4.94;80.30
83195;BME280;73090;49.282;11.402;2024-02-28T13:40:09;96836.41;;;4.95;80.05
83195;BME280;73090;49.282;11.402;2024-02-28T13:44:12;96830.38;;;4.94;81.04
83195;BME280;73090;49.282;11.402;2024-02-28T13:48:22;96827.13;;;4.92;80.32
83195;BME280;73090;49.282;11.402;2024-02-28T13:52:25;96831.75;;;4.98;80.50
83195;BME280;73090;49.282;11.402;2024-02-28T13:56:27;96838.25;;;5.12;80.36
83195;BME280;73090;49.282;11.402;2024-02-28T14:00:28;96838.91;;;5.24;78.74
83195;BME280;73090;49.282;11.402;2024-02-28T14:04:30;96840.69;;;5.23;78.58
83195;BME280;73090;49.282;11.402;2024-02-28T14:08:31;96837.88;;;5.07;78.85
83195;BME280;73090;49.282;11.402;2024-02-28T14:12:36;96829.72;;;4.92;78.56
83195;BME280;73090;49.282;11.402;2024-02-28T14:16:38;96834.41;;;4.88;79.89
83195;BME280;73090;49.282;11.402;2024-02-28T14:20:40;96832.47;;;4.90;80.52
83195;BME280;73090;49.282;11.402;2024-02-28T14:24:42;96834.59;;;5.05;79.71
83195;BME280;73090;49.282;11.402;2024-02-28T14:28:43;96834.88;;;5.02;80.03
83195;BME280;73090;49.282;11.402;2024-02-28T14:32:45;96824.75;;;4.99;80.27
83195;BME280;73090;49.282;11.402;2024-02-28T14:36:48;96834.75;;;5.03;80.31
83195;BME280;73090;49.282;11.402;2024-02-28T14:40:50;96832.53;;;5.08;80.29
83195;BME280;73090;49.282;11.402;2024-02-28T14:44:52;96829.38;;;5.05;80.14
83195;BME280;73090;49.282;11.402;2024-02-28T14:48:54;96829.63;;;5.12;79.85
83195;BME280;73090;49.282;11.402;2024-02-28T14:52:57;96833.97;;;5.21;79.94
83195;BME280;73090;49.282;11.402;2024-02-28T14:56:59;96827.75;;;5.32;79.40
83195;BME280;73090;49.282;11.402;2024-02-28T15:01:00;96823.72;;;5.37;79.28
83195;BME280;73090;49.282;11.402;2024-02-28T15:05:04;96821.28;;;5.36;79.24
83195;BME280;73090;49.282;11.402;2024-02-28T15:09:09;96821.56;;;5.33;79.40
83195;BME280;73090;49.282;11.402;2024-02-28T15:13:11;96817.25;;;5.23;78.57
83195;BME280;73090;49.282;11.402;2024-02-28T15:17:13;96822.47;;;5.23;78.70
83195;BME280;73090;49.282;11.402;2024-02-28T15:21:14;96822.59;;;5.22;79.03
83195;BME280;73090;49.282;11.402;2024-02-28T15:25:16;96827.13;;;5.20;79.14
83195;BME280;73090;49.282;11.402;2024-02-28T15:29:18;96821.75;;;5.21;78.74
83195;BME280;73090;49.282;11.402;2024-02-28T15:33:20;96819.28;;;5.20;78.76
83195;BME280;73090;49.282;11.402;2024-02-28T15:37:21;96815.88;;;5.19;78.53
83195;BME280;73090;49.282;11.402;2024-02-28T15:41:23;96817.69;;;5.19;78.96
83195;BME280;73090;49.282;11.402;2024-02-28T15:45:25;96820.28;;;5.19;79.51
83195;BME280;73090;49.282;11.402;2024-02-28T15:49:26;96827.25;;;5.18;79.22
83195;BME280;73090;49.282;11.402;2024-02-28T15:53:41;96817.38;;;5.22;79.14
83195;BME280;73090;49.282;11.402;2024-02-28T15:57:42;96822.03;;;5.18;78.95
83195;BME280;73090;49.282;11.402;2024-02-28T16:01:44;96818.53;;;5.09;78.84
83195;BME280;73090;49.282;11.402;2024-02-28T16:05:46;96816.06;;;5.08;79.72
83195;BME280;73090;49.282;11.402;2024-02-28T16:09:49;96819.22;;;5.12;79.80
83195;BME280;73090;49.282;11.402;2024-02-28T16:13:51;96813.03;;;5.13;79.53
83195;BME280;73090;49.282;11.402;2024-02-28T16:17:52;96816.31;;;5.15;79.42
83195;BME280;73090;49.282;11.402;2024-02-28T16:21:54;96817.72;;;5.09;79.66
83195;BME280;73090;49.282;11.402;2024-02-28T16:25:56;96826.13;;;5.03;80.51
83195;BME280;73090;49.282;11.402;2024-02-28T16:29:59;96823.09;;;4.98;81.17
83195;BME280;73090;49.282;11.402;2024-02-28T16:34:00;96822.72;;;4.93;81.75
83195;BME280;73090;49.282;11.402;2024-02-28T16:38:02;96822.84;;;4.91;81.58
83195;BME280;73090;49.282;11.402;2024-02-28T16:42:05;96832.09;;;4.85;81.64
83195;BME280;73090;49.282;11.402;2024-02-28T16:46:06;96832.78;;;4.78;81.63
83195;BME280;73090;49.282;11.402;2024-02-28T16:50:08;96843.75;;;4.71;81.74
83195;BME280;73090;49.282;11.402;2024-02-28T16:54:11;96842.97;;;4.61;82.57
83195;BME280;73090;49.282;11.402;2024-02-28T16:58:15;96847.91;;;4.54;82.84
83195;BME280;73090;49.282;11.402;2024-02-28T17:02:17;96859.72;;;4.49;83.17
83195;BME280;73090;49.282;11.402;2024-02-28T17:06:19;96862.75;;;4.44;83.15
83195;BME280;73090;49.282;11.402;2024-02-28T17:10:20;96858.09;;;4.38;83.29
83195;BME280;73090;49.282;11.402;2024-02-28T17:14:22;96864.66;;;4.32;83.93
83195;BME280;73090;49.282;11.402;2024-02-28T17:18:23;96863.72;;;4.24;84.03
83195;BME280;73090;49.282;11.402;2024-02-28T17:22:26;96870.41;;;4.16;84.31
83195;BME280;73090;49.282;11.402;2024-02-28T17:26:27;96864.69;;;4.03;84.59
83195;BME280;73090;49.282;11.402;2024-02-28T17:30:29;96870.16;;;3.90;84.67
83195;BME280;73090;49.282;11.402;2024-02-28T17:34:31;96879.28;;;3.75;85.20
83195;BME280;73090;49.282;11.402;2024-02-28T17:38:33;96875.16;;;3.62;85.22
83195;BME280;73090;49.282;11.402;2024-02-28T17:42:37;96877.44;;;3.46;85.89
83195;BME280;73090;49.282;11.402;2024-02-28T17:46:38;96878.38;;;3.35;86.20
83195;BME280;73090;49.282;11.402;2024-02-28T17:50:40;96889.97;;;3.21;86.11
83195;BME280;73090;49.282;11.402;2024-02-28T17:54:42;96897.97;;;3.08;86.26
83195;BME280;73090;49.282;11.402;2024-02-28T17:58:43;96897.34;;;2.95;86.61
83195;BME280;73090;49.282;11.402;2024-02-28T18:02:45;96892.81;;;2.87;86.81
83195;BME280;73090;49.282;11.402;2024-02-28T18:06:46;96895.66;;;2.84;87.57
83195;BME280;73090;49.282;11.402;2024-02-28T18:10:48;96902.75;;;2.82;87.93
83195;BME280;73090;49.282;11.402;2024-02-28T18:14:50;96900.25;;;2.71;88.16
83195;BME280;73090;49.282;11.402;2024-02-28T18:18:52;96902.63;;;2.42;88.79
83195;BME280;73090;49.282;11.402;2024-02-28T18:22:54;96906.56;;;2.36;90.07
83195;BME280;73090;49.282;11.402;2024-02-28T18:26:57;96909.59;;;2.41;90.49
83195;BME280;73090;49.282;11.402;2024-02-28T18:30:59;96914.16;;;2.49;91.21
83195;BME280;73090;49.282;11.402;2024-02-28T18:35:00;96915.69;;;2.51;90.81
83195;BME280;73090;49.282;11.402;2024-02-28T18:39:05;96910.25;;;2.54;90.70
83195;BME280;73090;49.282;11.402;2024-02-28T18:43:07;96908.34;;;2.57;90.49
83195;BME280;73090;49.282;11.402;2024-02-28T18:47:09;96901.81;;;2.62;90.80
83195;BME280;73090;49.282;11.402;2024-02-28T18:51:10;96909.34;;;2.65;90.59
83195;BME280;73090;49.282;11.402;2024-02-28T18:55:12;96905.13;;;2.64;90.74
83195;BME280;73090;49.282;11.402;2024-02-28T18:59:14;96908.66;;;2.63;90.73
83195;BME280;73090;49.282;11.402;2024-02-28T19:03:15;96902.66;;;2.63;90.87
83195;BME280;73090;49.282;11.402;2024-02-28T19:07:17;96912.69;;;2.56;90.54
83195;BME280;73090;49.282;11.402;2024-02-28T19:11:20;96904.09;;;2.56;90.32
83195;BME280;73090;49.282;11.402;2024-02-28T19:15:22;96908.28;;;2.47;90.63
83195;BME280;73090;49.282;11.402;2024-02-28T19:19:23;96906.06;;;2.42;90.64
83195;BME280;73090;49.282;11.402;2024-02-28T19:23:26;96904.09;;;2.34;90.28
83195;BME280;73090;49.282;11.402;2024-02-28T19:27:28;96894.47;;;2.25;89.76
83195;BME280;73090;49.282;11.402;2024-02-28T19:31:30;96912.53;;;2.15;90.04
83195;BME280;73090;49.282;11.402;2024-02-28T19:35:32;96908.09;;;2.06;89.68
83195;BME280;73090;49.282;11.402;2024-02-28T19:39:33;96908.94;;;1.95;89.68
83195;BME280;73090;49.282;11.402;2024-02-28T19:43:35;96904.88;;;1.81;89.20
83195;BME280;73090;49.282;11.402;2024-02-28T19:47:36;96908.19;;;1.72;89.59
83195;BME280;73090;49.282;11.402;2024-02-28T19:51:38;96906.56;;;1.60;89.50
83195;BME280;73090;49.282;11.402;2024-02-28T19:55:40;96903.19;;;1.48;89.41
83195;BME280;73090;49.282;11.402;2024-02-28T19:59:42;96907.66;;;1.35;89.44
83195;BME280;73090;49.282;11.402;2024-02-28T20:03:43;96907.19;;;1.30;90.00
83195;BME280;73090;49.282;11.402;2024-02-28T20:07:45;96906.97;;;1.21;90.04
83195;BME280;73090;49.282;11.402;2024-02-28T20:11:47;96903.53;;;1.09;89.91
83195;BME280;73090;49.282;11.402;2024-02-28T20:15:48;96900.03;;;0.99;90.08
83195;BME280;73090;49.282;11.402;2024-02-28T20:19:50;96890.13;;;0.93;90.32
83195;BME280;73090;49.282;11.402;2024-02-28T20:23:53;96888.94;;;0.86;90.96
83195;BME280;73090;49.282;11.402;2024-02-28T20:27:55;96890.59;;;0.76;90.78
83195;BME280;73090;49.282;11.402;2024-02-28T20:31:56;96892.72;;;0.70;90.92
83195;BME280;73090;49.282;11.402;2024-02-28T20:35:58;96893.50;;;0.60;90.82
83195;BME280;73090;49.282;11.402;2024-02-28T20:40:00;96882.56;;;0.56;90.85
83195;BME280;73090;49.282;11.402;2024-02-28T20:44:02;96877.84;;;0.50;90.97
83195;BME280;73090;49.282;11.402;2024-02-28T20:48:05;96875.59;;;0.45;91.47
83195;BME280;73090;49.282;11.402;2024-02-28T20:52:08;96879.00;;;0.46;91.26
83195;BME280;73090;49.282;11.402;2024-02-28T20:56:10;96877.47;;;0.32;91.49
83195;BME280;73090;49.282;11.402;2024-02-28T21:00:12;96884.72;;;0.27;91.85
83195;BME280;73090;49.282;11.402;2024-02-28T21:04:13;96882.09;;;0.15;90.95
83195;BME280;73090;49.282;11.402;2024-02-28T21:08:15;96881.50;;;0.12;91.15
83195;BME280;73090;49.282;11.402;2024-02-28T21:12:17;96878.09;;;0.11;91.30
83195;BME280;73090;49.282;11.402;2024-02-28T21:16:21;96873.59;;;0.02;91.21
83195;BME280;73090;49.282;11.402;2024-02-28T21:20:23;96865.81;;;-0.09;91.33
83195;BME280;73090;49.282;11.402;2024-02-28T21:24:26;96863.88;;;-0.19;91.22